Time;durP1;ratioP1;P1;durP2;ratioP2;P2;SDS_P1;SDS_P2;PMS_P1;PMS_P2;Temp;Humidity;BMP_temperature;BMP_pressure;BME280_temperature;BME280_humidity;BME280_pressure;Samples;Min_cycle;Max_cycle;Signal;HPM_P1;HPM_P2
2022/11/29 00:02:15;;;;;;;117.82;21.10;;;8.00;99.90;;;;;;5002389;28;20042;-72
2022/11/29 00:04:40;;;;;;;143.05;23.60;;;8.10;99.90;;;;;;4999194;28;20049;-72
2022/11/29 00:07:06;;;;;;;134.85;20.80;;;7.90;99.90;;;;;;4999454;28;20048;-72
2022/11/29 00:09:32;;;;;;;148.38;23.60;;;7.90;99.90;;;;;;5002670;28;22171;-73
2022/11/29 00:12:12;;;;;;;157.35;23.92;;;7.90;99.90;;;;;;5000395;28;20053;-72
2022/11/29 00:14:39;;;;;;;118.45;21.05;;;8.20;99.90;;;;;;5002406;28;20533;-70
2022/11/29 00:17:05;;;;;;;130.77;22.63;;;8.00;99.90;;;;;;5000161;28;20654;-72
2022/11/29 00:19:35;;;;;;;129.98;22.30;;;8.10;99.90;;;;;;5000590;28;20053;-71
2022/11/29 00:22:01;;;;;;;122.60;22.27;;;8.20;99.90;;;;;;4998790;28;20157;-72
2022/11/29 00:24:27;;;;;;;112.07;20.13;;;8.20;99.90;;;;;;5000264;28;20092;-70
2022/11/29 00:26:53;;;;;;;118.13;21.13;;;8.20;99.90;;;;;;5001132;28;20127;-71
2022/11/29 00:29:18;;;;;;;149.85;23.83;;;7.90;99.90;;;;;;5003198;28;20042;-71
2022/11/29 00:31:44;;;;;;;195.20;25.20;;;7.90;99.90;;;;;;5000777;28;20045;-72
2022/11/29 00:34:11;;;;;;;131.32;22.63;;;8.20;99.90;;;;;;5004026;28;21191;-74
2022/11/29 00:36:37;;;;;;;156.75;24.67;;;8.10;99.90;;;;;;5007651;28;20056;-72
2022/11/29 00:39:03;;;;;;;128.20;21.23;;;8.00;99.90;;;;;;5003249;28;20054;-72
2022/11/29 00:41:29;;;;;;;136.88;21.55;;;8.00;99.90;;;;;;5004153;28;20053;-73
2022/11/29 00:43:55;;;;;;;210.88;28.13;;;7.90;99.90;;;;;;4996004;28;20489;-73
2022/11/29 00:46:20;;;;;;;135.18;23.73;;;7.90;99.90;;;;;;5003596;28;20069;-72
2022/11/29 00:48:46;;;;;;;147.18;23.27;;;8.10;99.90;;;;;;5004130;28;20830;-70
2022/11/29 00:51:12;;;;;;;110.97;20.23;;;8.00;99.90;;;;;;5005840;28;20034;-71
2022/11/29 00:53:38;;;;;;;125.93;20.83;;;8.20;99.90;;;;;;5006580;28;20072;-71
2022/11/29 00:56:04;;;;;;;128.65;23.35;;;8.10;99.90;;;;;;5007204;28;20091;-72
2022/11/29 00:58:30;;;;;;;108.63;21.08;;;7.90;99.90;;;;;;5009946;28;20048;-72
2022/11/29 01:00:56;;;;;;;132.32;21.77;;;7.90;99.90;;;;;;5007987;28;20516;-72
2022/11/29 01:03:22;;;;;;;118.35;20.67;;;7.90;99.90;;;;;;5017907;28;20046;-72
2022/11/29 01:05:47;;;;;;;141.52;22.92;;;8.10;99.90;;;;;;5001910;28;20057;-72
2022/11/29 01:08:14;;;;;;;123.90;21.60;;;8.10;99.90;;;;;;5001065;28;20124;-73
2022/11/29 01:10:40;;;;;;;125.68;22.50;;;8.10;99.90;;;;;;4983048;28;20039;-72
2022/11/29 01:13:06;;;;;;;141.30;23.38;;;8.10;99.90;;;;;;5002337;28;20172;-70
2022/11/29 01:15:32;;;;;;;150.32;22.95;;;8.00;99.90;;;;;;4982821;28;21110;-70
2022/11/29 01:17:58;;;;;;;143.23;23.38;;;8.10;99.90;;;;;;4996852;28;20142;-71
2022/11/29 01:20:23;;;;;;;156.32;24.92;;;7.90;99.90;;;;;;5003371;28;20053;-72
2022/11/29 01:22:49;;;;;;;133.00;24.00;;;8.10;99.90;;;;;;5000147;28;20077;-73
2022/11/29 01:25:15;;;;;;;192.98;26.88;;;8.10;99.90;;;;;;5002123;28;20057;-73
2022/11/29 01:27:41;;;;;;;129.43;23.92;;;7.90;99.90;;;;;;5000000;28;20046;-73
2022/11/29 01:30:08;;;;;;;148.48;23.92;;;8.10;99.90;;;;;;5000535;28;20077;-73
2022/11/29 01:32:34;;;;;;;162.27;24.40;;;8.00;99.90;;;;;;4999701;28;20129;-70
2022/11/29 01:35:00;;;;;;;161.95;24.83;;;7.80;99.90;;;;;;5002563;28;20040;-72
2022/11/29 01:37:27;;;;;;;121.97;21.55;;;7.80;99.90;;;;;;4998074;28;20038;-72
2022/11/29 01:39:53;;;;;;;134.85;24.55;;;7.80;99.90;;;;;;5000629;28;20128;-72
2022/11/29 01:42:18;;;;;;;142.60;24.50;;;7.90;99.90;;;;;;5003319;28;20042;-72
2022/11/29 01:44:44;;;;;;;143.05;24.23;;;7.80;99.90;;;;;;5004693;28;20042;-73
2022/11/29 01:47:11;;;;;;;150.63;25.25;;;8.00;99.90;;;;;;5005064;28;20042;-72
2022/11/29 01:49:43;;;;;;;174.27;26.00;;;7.90;99.90;;;;;;4991116;28;20030;-73
2022/11/29 01:52:22;;;;;;;220.73;29.60;;;8.10;99.90;;;;;;5005884;28;20490;-72
2022/11/29 01:54:53;;;;;;;189.10;27.15;;;8.00;99.90;;;;;;5004319;28;20117;-72
2022/11/29 01:57:19;;;;;;;154.68;23.40;;;8.00;99.90;;;;;;5003377;28;20042;-71
2022/11/29 01:59:48;;;;;;;164.38;27.02;;;8.00;99.90;;;;;;4992722;28;20046;-71
2022/11/29 02:02:23;;;;;;;143.05;24.80;;;7.80;99.90;;;;;;5008408;28;20041;-73
2022/11/29 02:04:49;;;;;;;229.38;29.90;;;8.10;99.90;;;;;;5005343;28;20101;-71
2022/11/29 02:07:14;;;;;;;221.98;31.73;;;8.10;99.90;;;;;;5009957;28;20042;-72
2022/11/29 02:09:40;;;;;;;177.30;27.00;;;8.00;99.90;;;;;;5021042;28;20034;-72
2022/11/29 02:13:00;;;;;;;143.35;24.58;;;8.00;99.90;;;;;;5003130;28;20137;-70
2022/11/29 02:15:54;;;;;;;191.30;28.90;;;7.80;99.90;;;;;;4964951;28;20030;-72
2022/11/29 02:18:32;;;;;;;173.32;24.30;;;7.80;99.90;;;;;;5000739;28;20099;-72
2022/11/29 02:21:18;;;;;;;143.75;22.70;;;7.90;99.90;;;;;;5002870;28;20088;-71
2022/11/29 02:23:56;;;;;;;116.80;22.00;;;8.00;99.90;;;;;;5019429;28;20045;-73
2022/11/29 02:26:40;;;;;;;127.35;23.58;;;8.00;99.90;;;;;;5004011;28;20533;-71
2022/11/29 02:29:14;;;;;;;127.75;21.98;;;7.90;99.90;;;;;;5008284;28;20046;-73
2022/11/29 02:32:15;;;;;;;140.43;22.88;;;8.00;99.90;;;;;;5001171;28;20168;-73
2022/11/29 02:35:00;;;;;;;196.05;28.00;;;8.00;99.90;;;;;;4986045;28;20038;-72
2022/11/29 02:37:41;;;;;;;114.85;21.42;;;7.80;99.90;;;;;;4989198;28;20064;-73
2022/11/29 02:40:35;;;;;;;96.55;20.38;;;8.00;99.90;;;;;;5001961;28;21026;-72
2022/11/29 02:43:41;;;;;;;110.65;21.45;;;7.70;99.90;;;;;;4989945;28;20042;-71
2022/11/29 02:46:25;;;;;;;146.23;23.58;;;7.90;99.90;;;;;;4974014;28;20072;-72
2022/11/29 02:48:54;;;;;;;158.30;25.10;;;7.90;99.90;;;;;;5023687;28;20041;-71
2022/11/29 02:51:39;;;;;;;150.07;23.95;;;7.90;99.90;;;;;;5004748;28;20141;-72
2022/11/29 02:54:15;;;;;;;152.77;23.30;;;7.80;99.90;;;;;;5008999;28;20060;-72
2022/11/29 02:57:10;;;;;;;129.57;21.92;;;7.90;99.90;;;;;;5007886;28;20825;-73
2022/11/29 02:59:58;;;;;;;108.32;20.48;;;7.80;99.90;;;;;;5023631;28;20038;-72
2022/11/29 03:02:52;;;;;;;86.88;17.00;;;7.70;99.90;;;;;;5004268;28;20049;-70
2022/11/29 03:05:47;;;;;;;119.70;21.55;;;7.80;99.90;;;;;;5004105;28;20037;-72
2022/11/29 03:08:17;;;;;;;115.30;21.52;;;7.90;99.90;;;;;;4988936;28;20049;-73
2022/11/29 03:11:17;;;;;;;114.65;21.77;;;7.70;99.90;;;;;;4997941;28;20050;-72
2022/11/29 03:14:05;;;;;;;165.23;25.38;;;7.90;99.90;;;;;;5003450;28;20547;-70
2022/11/29 03:16:45;;;;;;;180.70;25.67;;;7.60;99.90;;;;;;5001497;28;20662;-72
2022/11/29 03:19:33;;;;;;;126.35;22.08;;;7.90;99.90;;;;;;4998727;28;20050;-72
2022/11/29 03:22:14;;;;;;;133.75;23.00;;;7.90;99.90;;;;;;4996747;28;20038;-73
2022/11/29 03:24:53;;;;;;;108.43;20.63;;;7.90;99.90;;;;;;5002860;28;20065;-73
2022/11/29 03:27:35;;;;;;;130.60;22.30;;;7.60;99.90;;;;;;5002356;28;20481;-73
2022/11/29 03:30:06;;;;;;;135.82;24.73;;;7.80;99.90;;;;;;5004334;28;20034;-73
2022/11/29 03:32:32;;;;;;;182.95;26.17;;;7.60;99.90;;;;;;4999511;28;20065;-70
2022/11/29 03:35:09;;;;;;;258.30;31.45;;;7.70;99.90;;;;;;4999923;28;20452;-72
2022/11/29 03:37:37;;;;;;;134.82;23.65;;;7.80;99.90;;;;;;5001478;28;20065;-73
2022/11/29 03:40:10;;;;;;;110.35;21.88;;;7.60;99.90;;;;;;5002774;28;20052;-73
2022/11/29 03:43:01;;;;;;;114.20;21.13;;;7.90;99.90;;;;;;5005100;28;20049;-73
2022/11/29 03:46:02;;;;;;;139.13;23.85;;;7.60;99.90;;;;;;5007739;28;20549;-72
2022/11/29 03:48:41;;;;;;;175.82;26.88;;;7.70;99.90;;;;;;4975038;28;20057;-72
2022/11/29 03:51:16;;;;;;;123.63;21.70;;;7.80;99.90;;;;;;5021389;28;20051;-72
2022/11/29 03:54:01;;;;;;;114.70;22.05;;;7.60;99.90;;;;;;5007760;28;20133;-72
2022/11/29 03:56:29;;;;;;;107.93;20.80;;;7.80;99.90;;;;;;5002803;28;20104;-70
2022/11/29 03:59:12;;;;;;;101.18;21.77;;;7.80;99.90;;;;;;5008375;28;20042;-71
2022/11/29 04:02:16;;;;;;;121.68;23.90;;;7.70;99.90;;;;;;5003354;28;20076;-73
2022/11/29 04:05:16;;;;;;;202.32;29.40;;;7.80;99.90;;;;;;5000321;28;20088;-70
2022/11/29 04:08:01;;;;;;;;;;;7.80;99.90;;;;;;5004635;28;20034;-73
2022/11/29 04:10:50;;;;;;;121.72;21.80;;;7.70;99.90;;;;;;5007448;28;19921;-71
2022/11/29 04:13:31;;;;;;;111.43;21.67;;;7.60;99.90;;;;;;5007974;28;20034;-71
2022/11/29 04:16:02;;;;;;;115.22;22.20;;;7.50;99.90;;;;;;5005352;28;21062;-70
2022/11/29 04:19:05;;;;;;;195.30;28.92;;;7.70;99.90;;;;;;5018859;28;20042;-72
2022/11/29 04:21:59;;;;;;;94.63;19.83;;;7.70;99.90;;;;;;5002221;28;20124;-70
2022/11/29 04:24:48;;;;;;;99.88;20.38;;;7.70;99.90;;;;;;5006572;28;20037;-72
2022/11/29 04:27:29;;;;;;;121.88;21.90;;;7.60;99.90;;;;;;5006213;28;20049;-72
2022/11/29 04:30:06;;;;;;;95.60;19.85;;;7.60;99.90;;;;;;5004879;28;20048;-70
2022/11/29 04:32:59;;;;;;;114.78;20.88;;;7.60;99.90;;;;;;5001727;28;20030;-73
2022/11/29 04:35:50;;;;;;;111.72;22.13;;;7.40;99.90;;;;;;5008407;28;20042;-72
2022/11/29 04:38:19;;;;;;;104.57;20.95;;;7.40;99.90;;;;;;5001361;28;20049;-72
2022/11/29 04:41:06;;;;;;;107.28;20.98;;;7.50;99.90;;;;;;4989318;28;20038;-71
2022/11/29 04:43:50;;;;;;;103.82;21.35;;;7.50;99.90;;;;;;5007005;28;20054;-71
2022/11/29 04:46:50;;;;;;;98.72;20.75;;;7.40;99.90;;;;;;5004543;28;20054;-71
2022/11/29 04:49:48;;;;;;;95.80;19.90;;;7.40;99.90;;;;;;5010167;28;20045;-72
2022/11/29 04:52:26;;;;;;;83.35;18.98;;;7.40;99.90;;;;;;4955635;28;20042;-71
2022/11/29 04:55:17;;;;;;;83.80;18.23;;;7.40;99.90;;;;;;5005357;28;20440;-72
2022/11/29 04:58:00;;;;;;;107.25;20.70;;;7.50;99.90;;;;;;5020254;28;20559;-72
2022/11/29 05:00:30;;;;;;;94.72;20.98;;;7.60;99.90;;;;;;5006775;28;20038;-72
2022/11/29 05:03:21;;;;;;;161.52;26.45;;;7.30;99.90;;;;;;5006857;28;20374;-73
2022/11/29 05:05:53;;;;;;;101.40;21.45;;;7.30;99.90;;;;;;5003842;28;20054;-69
2022/11/29 05:08:50;;;;;;;93.15;20.20;;;7.50;99.90;;;;;;5025174;28;20042;-71
2022/11/29 05:11:53;;;;;;;113.88;22.80;;;7.50;99.90;;;;;;5002755;28;20405;-72
2022/11/29 05:14:34;;;;;;;113.22;21.20;;;7.60;99.90;;;;;;4998521;28;20037;-73
2022/11/29 05:17:20;;;;;;;109.28;21.20;;;7.40;99.90;;;;;;4981050;28;20504;-71
2022/11/29 05:20:20;;;;;;;142.65;23.83;;;7.40;99.90;;;;;;4997298;28;20119;-69
2022/11/29 05:22:51;;;;;;;143.68;23.27;;;7.50;99.90;;;;;;4996364;28;20088;-72
2022/11/29 05:25:44;;;;;;;109.75;21.50;;;7.50;99.90;;;;;;4984837;28;20501;-72
2022/11/29 05:28:32;;;;;;;84.82;18.10;;;7.50;99.90;;;;;;5001946;28;20407;-74
2022/11/29 05:31:07;;;;;;;91.50;19.88;;;7.30;99.90;;;;;;4999648;28;20399;-72
2022/11/29 05:33:35;;;;;;;129.38;23.00;;;7.40;99.90;;;;;;5003003;28;20049;-72
2022/11/29 05:36:31;;;;;;;135.80;22.58;;;7.30;99.90;;;;;;5004751;28;20136;-69
2022/11/29 05:39:15;;;;;;;137.65;22.50;;;7.50;99.90;;;;;;4989116;28;20050;-72
2022/11/29 05:42:10;;;;;;;194.35;28.20;;;7.30;99.90;;;;;;5005576;28;20061;-70
2022/11/29 05:44:43;;;;;;;99.93;20.20;;;7.30;99.90;;;;;;4992476;28;20053;-72
2022/11/29 05:47:15;;;;;;;140.90;25.27;;;7.40;99.90;;;;;;5012566;28;20093;-72
2022/11/29 05:49:57;;;;;;;110.38;21.90;;;7.50;99.90;;;;;;5006919;28;20096;-73
2022/11/29 05:52:27;;;;;;;102.25;19.75;;;7.20;99.90;;;;;;5026856;28;20048;-72
2022/11/29 05:55:14;;;;;;;193.68;25.80;;;7.40;99.90;;;;;;5007848;28;20042;-72
2022/11/29 05:58:17;;;;;;;103.53;20.20;;;7.30;99.90;;;;;;5008126;28;20130;-69
2022/11/29 06:01:01;;;;;;;90.78;18.70;;;7.30;99.90;;;;;;5025109;28;20093;-72
2022/11/29 06:03:42;;;;;;;81.68;17.92;;;7.10;99.90;;;;;;5010378;28;20099;-71
2022/11/29 06:06:14;;;;;;;90.53;18.52;;;7.40;99.90;;;;;;5008523;28;20133;-70
2022/11/29 06:08:52;;;;;;;73.63;17.20;;;7.20;99.90;;;;;;5024820;28;20034;-72
2022/11/29 06:11:31;;;;;;;77.68;17.95;;;7.30;99.90;;;;;;4991717;28;20612;-72
2022/11/29 06:14:18;;;;;;;77.63;17.55;;;7.10;99.90;;;;;;5009890;28;20124;-72
2022/11/29 06:17:17;;;;;;;98.10;19.80;;;7.20;99.90;;;;;;5008288;28;20038;-72
2022/11/29 06:19:48;;;;;;;103.07;18.98;;;7.10;99.90;;;;;;5010510;28;20359;-71
2022/11/29 06:22:47;;;;;;;100.40;18.85;;;7.10;99.90;;;;;;5006835;28;20129;-73
2022/11/29 06:25:32;;;;;;;79.65;18.20;;;7.00;99.90;;;;;;5005950;28;20065;-72
2022/11/29 06:28:35;;;;;;;72.60;17.00;;;7.30;99.90;;;;;;5005999;28;20073;-71
2022/11/29 06:31:25;;;;;;;78.65;17.88;;;7.00;99.90;;;;;;5021114;28;20398;-70
2022/11/29 06:34:14;;;;;;;59.53;16.45;;;7.20;99.90;;;;;;5007532;28;20104;-73
2022/11/29 06:36:49;;;;;;;70.30;16.25;;;7.00;99.90;;;;;;5003695;28;20050;-73
2022/11/29 06:39:15;;;;;;;73.53;16.60;;;7.30;99.90;;;;;;5010303;28;20474;-72
2022/11/29 06:41:41;;;;;;;71.28;16.35;;;7.20;99.90;;;;;;5005643;28;20045;-71
2022/11/29 06:44:08;;;;;;;72.97;17.67;;;7.10;99.90;;;;;;5005995;28;20053;-69
2022/11/29 06:47:03;;;;;;;87.93;19.35;;;7.20;99.90;;;;;;5022144;28;20073;-72
2022/11/29 06:49:38;;;;;;;69.50;16.83;;;7.20;99.90;;;;;;5002748;28;20037;-72
2022/11/29 06:52:24;;;;;;;72.03;17.40;;;6.90;99.90;;;;;;5009565;28;20045;-71
2022/11/29 06:55:19;;;;;;;78.43;17.45;;;6.90;99.90;;;;;;5003169;28;20053;-72
2022/11/29 06:57:50;;;;;;;63.45;15.82;;;7.20;99.90;;;;;;4991902;28;20046;-73
2022/11/29 07:00:22;;;;;;;109.90;19.60;;;6.90;99.90;;;;;;4994052;28;20042;-72
2022/11/29 07:03:33;;;;;;;56.53;15.40;;;6.90;99.90;;;;;;5005782;28;20046;-72
2022/11/29 07:06:15;;;;;;;62.70;15.55;;;7.00;99.90;;;;;;5003569;28;20045;-72
2022/11/29 07:08:41;;;;;;;78.53;16.92;;;7.10;99.90;;;;;;5009842;28;20046;-70
2022/11/29 07:11:10;;;;;;;56.60;15.68;;;7.10;99.90;;;;;;4992267;28;20145;-72
2022/11/29 07:13:36;;;;;;;66.07;17.00;;;6.90;99.90;;;;;;5014781;28;20034;-73
2022/11/29 07:16:42;;;;;;;62.95;17.25;;;7.00;99.90;;;;;;5012649;28;20057;-71
2022/11/29 07:19:19;;;;;;;62.97;16.10;;;7.20;99.90;;;;;;4981392;28;20196;-73
2022/11/29 07:22:02;;;;;;;73.47;17.70;;;6.90;99.90;;;;;;5006583;28;20049;-72
2022/11/29 07:24:47;;;;;;;74.53;16.33;;;7.20;99.90;;;;;;4991114;28;20033;-73
2022/11/29 07:27:22;;;;;;;72.00;17.33;;;6.90;99.90;;;;;;5005741;28;20057;-73
2022/11/29 07:30:07;;;;;;;90.25;18.23;;;7.10;99.90;;;;;;5006640;28;20034;-73
2022/11/29 07:33:20;;;;;;;68.00;16.88;;;6.90;99.90;;;;;;5005186;28;20042;-73
2022/11/29 07:35:57;;;;;;;117.82;20.60;;;7.10;99.90;;;;;;4996624;28;20042;-70
2022/11/29 07:38:55;;;;;;;98.03;19.23;;;7.10;99.90;;;;;;5003495;28;20583;-71
2022/11/29 07:41:59;;;;;;;70.05;17.02;;;7.00;99.90;;;;;;5007466;28;20042;-73
2022/11/29 07:44:49;;;;;;;88.50;17.83;;;7.10;99.90;;;;;;4990310;28;20046;-72
2022/11/29 07:47:14;;;;;;;63.33;16.55;;;7.10;99.90;;;;;;5006903;28;20058;-72
2022/11/29 07:49:40;;;;;;;59.03;16.58;;;6.90;99.90;;;;;;5003945;28;20038;-69
2022/11/29 07:52:06;;;;;;;79.38;18.10;;;6.90;99.90;;;;;;5007925;28;20073;-70
2022/11/29 07:54:31;;;;;;;75.25;18.25;;;6.90;99.90;;;;;;5008551;28;20029;-72
2022/11/29 07:56:57;;;;;;;74.85;17.10;;;6.90;99.90;;;;;;5007758;28;20159;-69
2022/11/29 07:59:22;;;;;;;100.78;19.95;;;7.00;99.90;;;;;;4985064;28;20058;-72
2022/11/29 08:01:48;;;;;;;76.88;15.90;;;7.10;99.90;;;;;;4999346;28;20048;-69
2022/11/29 08:04:13;;;;;;;66.28;17.60;;;6.90;99.90;;;;;;5008113;28;20046;-73
2022/11/29 08:06:39;;;;;;;110.45;21.25;;;7.00;99.90;;;;;;4997601;28;20056;-72
2022/11/29 08:09:06;;;;;;;61.25;16.20;;;7.00;99.90;;;;;;4997437;28;20037;-72
2022/11/29 08:11:32;;;;;;;86.85;19.10;;;7.20;99.90;;;;;;5000826;28;20046;-73
2022/11/29 08:14:02;;;;;;;77.30;17.48;;;7.10;99.90;;;;;;5008612;28;20042;-72
2022/11/29 08:16:28;;;;;;;;;;;7.20;99.90;;;;;;5012425;28;20132;-72
2022/11/29 08:18:53;;;;;;;60.47;15.60;;;7.10;99.90;;;;;;5006479;28;20041;-72
2022/11/29 08:21:19;;;;;;;54.53;16.40;;;7.10;99.90;;;;;;5024991;28;20501;-72
2022/11/29 08:23:49;;;;;;;74.43;17.80;;;7.10;99.90;;;;;;5020341;28;20088;-72
2022/11/29 08:26:16;;;;;;;58.13;16.20;;;7.10;99.90;;;;;;5008027;28;20136;-72
2022/11/29 08:28:42;;;;;;;83.32;18.42;;;7.30;99.90;;;;;;5010197;28;20494;-71
2022/11/29 08:31:10;;;;;;;67.88;17.13;;;7.30;99.90;;;;;;5008120;28;20060;-70
2022/11/29 08:33:40;;;;;;;58.00;16.33;;;7.20;99.90;;;;;;4984697;28;20042;-72
2022/11/29 08:36:08;;;;;;;81.55;17.95;;;7.20;99.90;;;;;;4997774;28;20037;-72
2022/11/29 08:38:34;;;;;;;71.53;16.55;;;7.20;99.90;;;;;;5009571;28;20042;-72
2022/11/29 08:41:04;;;;;;;63.25;16.38;;;7.10;99.90;;;;;;5009580;28;20347;-72
2022/11/29 08:43:30;;;;;;;66.45;17.00;;;7.40;99.90;;;;;;4994481;28;20065;-73
2022/11/29 08:45:56;;;;;;;55.30;15.52;;;7.40;99.90;;;;;;5009604;28;20036;-72
2022/11/29 08:48:23;;;;;;;76.00;17.23;;;7.20;99.90;;;;;;5008230;28;20612;-72
2022/11/29 08:50:49;;;;;;;50.85;14.60;;;7.50;99.90;;;;;;5007461;28;20034;-73
2022/11/29 08:56:00;;;;;;;61.92;16.05;;;7.50;99.90;;;;;;4990350;28;20038;-72
2022/11/29 08:58:25;;;;;;;59.35;15.63;;;7.50;99.90;;;;;;5006793;28;20046;-72
2022/11/29 09:00:51;;;;;;;51.78;15.55;;;7.40;99.90;;;;;;5007128;28;20038;-71
2022/11/29 09:06:13;;;;;;;43.42;13.68;;;7.40;99.90;;;;;;5009887;28;20045;-72
2022/11/29 09:08:42;;;;;;;48.13;13.98;;;7.50;99.90;;;;;;5007613;28;20063;-70
2022/11/29 09:11:15;;;;;;;53.30;15.45;;;7.70;99.90;;;;;;5007177;28;20042;-70
2022/11/29 09:13:43;;;;;;;42.08;14.10;;;7.70;99.90;;;;;;5024116;28;20042;-70
2022/11/29 09:16:11;;;;;;;40.88;14.00;;;7.70;99.90;;;;;;4997714;28;20053;-69
2022/11/29 09:18:38;;;;;;;69.25;16.88;;;7.70;99.90;;;;;;5009220;28;20042;-72
2022/11/29 09:21:08;;;;;;;48.72;13.75;;;7.80;99.90;;;;;;5007733;28;20045;-69
2022/11/29 09:23:38;;;;;;;53.80;14.23;;;7.70;99.90;;;;;;5010134;28;20096;-71
2022/11/29 09:26:04;;;;;;;46.30;14.88;;;7.90;99.90;;;;;;5010421;28;20409;-72
2022/11/29 09:28:30;;;;;;;45.03;15.07;;;7.80;99.90;;;;;;5009714;28;20042;-72
2022/11/29 09:31:02;;;;;;;52.03;15.93;;;7.80;99.90;;;;;;5000508;28;20112;-72
2022/11/29 09:33:27;;;;;;;49.55;14.25;;;7.90;99.90;;;;;;5007245;28;20560;-72
2022/11/29 09:35:56;;;;;;;48.13;14.70;;;7.70;99.90;;;;;;5010537;28;20153;-70
2022/11/29 09:38:22;;;;;;;42.15;13.68;;;7.70;99.90;;;;;;5009649;28;20048;-72
2022/11/29 09:41:06;;;;;;;45.33;13.32;;;7.70;99.90;;;;;;5010185;28;20072;-73
2022/11/29 09:43:53;;;;;;;53.38;14.10;;;7.90;99.90;;;;;;5026616;28;20062;-72
2022/11/29 09:46:31;;;;;;;45.22;13.82;;;7.90;99.90;;;;;;5008274;28;20076;-74
2022/11/29 09:49:26;;;;;;;52.30;14.38;;;7.90;99.90;;;;;;5007845;28;20061;-75
2022/11/29 09:52:36;;;;;;;42.33;13.07;;;7.90;99.90;;;;;;5008925;28;20050;-72
2022/11/29 09:55:28;;;;;;;34.47;12.15;;;8.00;99.90;;;;;;4947169;28;20906;-71
2022/11/29 09:57:58;;;;;;;41.85;12.63;;;7.90;99.90;;;;;;5006031;28;20049;-72
2022/11/29 10:00:24;;;;;;;40.13;12.70;;;8.10;99.90;;;;;;5015908;28;20494;-74
2022/11/29 10:03:00;;;;;;;40.40;12.32;;;8.00;99.90;;;;;;5010133;28;20041;-72
2022/11/29 10:05:28;;;;;;;38.00;12.27;;;7.90;99.90;;;;;;5043135;28;20598;-71
2022/11/29 10:08:01;;;;;;;35.15;12.40;;;8.00;99.90;;;;;;5008892;28;20164;-71
2022/11/29 10:10:44;;;;;;;45.70;12.27;;;7.90;99.90;;;;;;5009111;28;20399;-70
2022/11/29 10:13:30;;;;;;;40.72;12.07;;;8.10;99.90;;;;;;5010778;28;20038;-70
2022/11/29 10:16:07;;;;;;;39.88;12.02;;;8.10;99.90;;;;;;5020739;28;20038;-69
2022/11/29 10:18:45;;;;;;;37.85;12.05;;;8.00;99.90;;;;;;5008200;28;20038;-70
2022/11/29 10:21:16;;;;;;;42.33;13.30;;;8.10;99.90;;;;;;5010146;28;20041;-71
2022/11/29 10:23:52;;;;;;;64.50;14.45;;;8.00;99.90;;;;;;5011221;28;20100;-71
2022/11/29 10:26:19;;;;;;;52.92;12.10;;;8.10;99.90;;;;;;5010431;28;20084;-69
2022/11/29 10:28:49;;;;;;;44.28;13.13;;;8.20;99.90;;;;;;5010600;28;20065;-70
2022/11/29 10:31:27;;;;;;;35.58;13.10;;;8.30;99.90;;;;;;5013920;28;20100;-71
2022/11/29 10:33:54;;;;;;;37.70;12.02;;;8.30;99.90;;;;;;5013354;28;20492;-71
2022/11/29 10:36:35;;;;;;;36.33;12.68;;;8.40;99.90;;;;;;5009833;28;20064;-71
2022/11/29 10:39:12;;;;;;;31.63;11.20;;;8.40;99.90;;;;;;5009023;28;20092;-73
2022/11/29 10:41:37;;;;;;;37.60;11.90;;;8.30;99.90;;;;;;5008444;28;20073;-71
2022/11/29 10:44:03;;;;;;;35.80;11.85;;;8.50;99.90;;;;;;5013065;28;20089;-71
2022/11/29 10:46:31;;;;;;;32.45;11.77;;;8.40;99.90;;;;;;5012439;28;20045;-71
2022/11/29 10:49:05;;;;;;;35.15;11.93;;;8.30;99.90;;;;;;5013332;28;20034;-71
2022/11/29 10:51:31;;;;;;;33.10;11.45;;;8.40;99.90;;;;;;5013862;28;20038;-69
2022/11/29 10:54:23;;;;;;;30.25;11.15;;;8.50;99.90;;;;;;5011937;28;20406;-70
2022/11/29 10:56:50;;;;;;;29.77;10.82;;;8.30;99.90;;;;;;5008506;28;20057;-70
2022/11/29 10:59:22;;;;;;;42.75;11.90;;;8.30;99.90;;;;;;5009974;28;20056;-71
2022/11/29 11:01:49;;;;;;;34.08;11.27;;;8.40;99.90;;;;;;5002884;28;20528;-72
2022/11/29 11:04:25;;;;;;;33.40;11.20;;;8.40;99.90;;;;;;5008819;28;20077;-70
2022/11/29 11:06:55;;;;;;;27.67;11.27;;;8.50;99.90;;;;;;5011866;28;20064;-70
2022/11/29 11:09:35;;;;;;;33.58;10.63;;;8.30;99.90;;;;;;5012953;28;20378;-70
2022/11/29 11:12:05;;;;;;;30.27;10.65;;;8.30;99.90;;;;;;5008385;28;20052;-71
2022/11/29 11:14:36;;;;;;;34.63;11.18;;;8.40;99.90;;;;;;5009525;28;20046;-70
2022/11/29 11:17:24;;;;;;;35.20;10.70;;;8.40;99.90;;;;;;5012521;28;20068;-72
2022/11/29 11:20:05;;;;;;;33.35;11.35;;;8.30;99.90;;;;;;5012040;28;20049;-71
2022/11/29 11:22:32;;;;;;;28.80;11.25;;;8.30;99.90;;;;;;5008057;28;20037;-71
2022/11/29 11:25:05;;;;;;;37.95;11.90;;;8.30;99.90;;;;;;5006158;28;20050;-71
2022/11/29 11:27:34;;;;;;;29.98;11.25;;;8.30;99.90;;;;;;5021993;28;20060;-70
2022/11/29 11:30:03;;;;;;;41.90;12.05;;;8.30;99.90;;;;;;5011910;28;20554;-70
2022/11/29 11:32:29;;;;;;;32.97;11.05;;;8.20;99.90;;;;;;5012655;28;20034;-71
2022/11/29 11:34:57;;;;;;;29.75;10.18;;;8.30;99.90;;;;;;5012006;28;20041;-70
2022/11/29 11:37:30;;;;;;;34.80;12.25;;;8.30;99.90;;;;;;5010287;28;20493;-69
2022/11/29 11:40:17;;;;;;;31.10;11.05;;;8.40;99.90;;;;;;5012704;28;20064;-71
2022/11/29 11:42:43;;;;;;;33.70;10.65;;;8.50;99.90;;;;;;5009337;28;20660;-70
2022/11/29 11:45:11;;;;;;;34.45;11.65;;;8.40;99.90;;;;;;5012387;28;20050;-70
2022/11/29 11:47:48;;;;;;;34.63;12.13;;;8.50;99.90;;;;;;5028033;28;20060;-70
2022/11/29 11:50:24;;;;;;;35.22;10.98;;;8.50;99.90;;;;;;5011905;28;20052;-71
2022/11/29 11:52:53;;;;;;;33.58;12.40;;;8.60;99.90;;;;;;5009205;28;20046;-71
2022/11/29 11:55:39;;;;;;;33.85;11.98;;;8.70;99.90;;;;;;5009322;28;20045;-71
2022/11/29 11:58:15;;;;;;;33.90;11.82;;;8.50;99.90;;;;;;5013152;28;20046;-71
2022/11/29 12:00:46;;;;;;;33.78;10.73;;;8.70;99.90;;;;;;5011073;28;20049;-69
2022/11/29 12:03:30;;;;;;;;;;;8.60;99.90;;;;;;5004938;28;20818;-70
2022/11/29 12:06:24;;;;;;;34.20;12.05;;;8.70;99.90;;;;;;5001857;28;20004;-70
2022/11/29 12:08:53;;;;;;;30.85;11.13;;;8.60;99.90;;;;;;5006138;28;20140;-70
2022/11/29 12:11:20;;;;;;;31.90;11.70;;;8.70;99.90;;;;;;5009447;28;20073;-71
2022/11/29 12:13:54;;;;;;;32.50;11.68;;;8.70;99.90;;;;;;5008057;28;20044;-70
2022/11/29 12:16:31;;;;;;;33.35;11.80;;;8.70;99.90;;;;;;5008152;28;20428;-70
2022/11/29 12:19:03;;;;;;;40.15;13.23;;;8.90;99.90;;;;;;5011325;28;20049;-70
2022/11/29 12:21:36;;;;;;;32.42;12.48;;;8.80;99.90;;;;;;5012789;28;20037;-70
2022/11/29 12:24:20;;;;;;;36.40;11.77;;;9.00;99.90;;;;;;5010887;28;20144;-70
2022/11/29 12:26:46;;;;;;;35.42;12.98;;;9.00;99.90;;;;;;4993756;28;20042;-70
2022/11/29 12:29:17;;;;;;;30.30;12.57;;;9.00;99.90;;;;;;5009348;28;20053;-70
2022/11/29 12:32:13;;;;;;;30.67;11.80;;;9.00;99.90;;;;;;4993960;28;20066;-69
2022/11/29 12:34:48;;;;;;;30.65;11.90;;;9.10;99.90;;;;;;5010332;28;20087;-70
2022/11/29 12:37:23;;;;;;;37.42;12.45;;;9.00;99.90;;;;;;5009368;28;20486;-70
2022/11/29 12:40:21;;;;;;;33.65;12.93;;;9.10;99.90;;;;;;5008423;28;20562;-69
2022/11/29 12:43:09;;;;;;;31.80;11.18;;;9.10;99.90;;;;;;4995750;28;20069;-69
2022/11/29 12:46:05;;;;;;;33.95;12.60;;;9.10;99.90;;;;;;4974394;28;20160;-69
2022/11/29 12:49:02;;;;;;;29.63;12.32;;;9.10;99.90;;;;;;4992757;28;20038;-69
2022/11/29 12:51:39;;;;;;;34.88;12.02;;;9.10;99.90;;;;;;5011111;28;20524;-69
2022/11/29 12:54:13;;;;;;;31.48;11.15;;;9.00;99.90;;;;;;4991967;28;20380;-70
2022/11/29 12:57:16;;;;;;;30.33;12.02;;;9.00;99.90;;;;;;5008595;28;20049;-71
2022/11/29 13:00:06;;;;;;;30.30;12.38;;;9.10;99.90;;;;;;4993161;28;20081;-70
2022/11/29 13:03:01;;;;;;;28.13;12.55;;;9.10;99.90;;;;;;4987429;28;20041;-70
2022/11/29 13:06:04;;;;;;;28.98;12.38;;;8.90;99.90;;;;;;5005790;28;20506;-69
2022/11/29 13:08:32;;;;;;;27.00;11.63;;;9.00;99.90;;;;;;5009380;28;20485;-69
2022/11/29 13:11:07;;;;;;;28.15;12.38;;;9.00;99.90;;;;;;4993836;28;20052;-70
2022/11/29 13:13:44;;;;;;;25.83;12.02;;;8.90;99.90;;;;;;5008882;28;20034;-67
2022/11/29 13:16:26;;;;;;;23.73;12.07;;;8.70;99.90;;;;;;5008344;28;20080;-68
2022/11/29 13:19:03;;;;;;;23.35;11.60;;;8.70;99.90;;;;;;5008791;28;20059;-69
2022/11/29 13:21:51;;;;;;;20.83;11.23;;;8.70;99.90;;;;;;5008443;28;20056;-69
2022/11/29 13:24:24;;;;;;;23.08;10.98;;;8.60;99.90;;;;;;5008381;28;20390;-68
2022/11/29 13:26:51;;;;;;;23.20;11.07;;;8.60;99.90;;;;;;5008954;28;20513;-67
2022/11/29 13:29:17;;;;;;;21.52;10.55;;;8.60;99.90;;;;;;5010209;28;20046;-66